sensor_id;sensor_type;location;lat;lon;timestamp;P1;durP1;ratioP1;P2;durP2;ratioP2
10452;SDS011;5274;51.992;8.518;2022-11-20T00:02:20;13.97;;;9.10;;
10452;SDS011;5274;51.992;8.518;2022-11-20T00:04:45;18.00;;;9.60;;
10452;SDS011;5274;51.992;8.518;2022-11-20T00:07:11;14.87;;;8.90;;
10452;SDS011;5274;51.992;8.518;2022-11-20T00:09:36;16.83;;;8.13;;
10452;SDS011;5274;51.992;8.518;2022-11-20T00:12:02;15.27;;;8.30;;
10452;SDS011;5274;51.992;8.518;2022-11-20T00:14:28;14.03;;;8.13;;
10452;SDS011;5274;51.992;8.518;2022-11-20T00:16:53;10.97;;;7.27;;
10452;SDS011;5274;51.992;8.518;2022-11-20T00:19:19;17.17;;;8.00;;
10452;SDS011;5274;51.992;8.518;2022-11-20T00:21:44;14.70;;;7.67;;
10452;SDS011;5274;51.992;8.518;2022-11-20T00:24:10;14.33;;;8.00;;
10452;SDS011;5274;51.992;8.518;2022-11-20T00:26:36;16.07;;;8.40;;
10452;SDS011;5274;51.992;8.518;2022-11-20T00:29:02;15.87;;;8.87;;
10452;SDS011;5274;51.992;8.518;2022-11-20T00:31:28;18.70;;;9.83;;
10452;SDS011;5274;51.992;8.518;2022-11-20T00:33:54;18.63;;;9.87;;
10452;SDS011;5274;51.992;8.518;2022-11-20T00:36:21;17.93;;;9.83;;
10452;SDS011;5274;51.992;8.518;2022-11-20T00:38:55;22.10;;;11.07;;
10452;SDS011;5274;51.992;8.518;2022-11-20T00:41:22;21.63;;;12.50;;
10452;SDS011;5274;51.992;8.518;2022-11-20T00:43:48;19.50;;;11.83;;
10452;SDS011;5274;51.992;8.518;2022-11-20T00:46:16;22.03;;;12.13;;
10452;SDS011;5274;51.992;8.518;2022-11-20T00:48:44;23.30;;;13.13;;
10452;SDS011;5274;51.992;8.518;2022-11-20T00:51:11;22.97;;;12.57;;
10452;SDS011;5274;51.992;8.518;2022-11-20T00:53:38;23.90;;;12.60;;
10452;SDS011;5274;51.992;8.518;2022-11-20T00:56:04;22.73;;;12.27;;
10452;SDS011;5274;51.992;8.518;2022-11-20T00:58:32;23.63;;;13.60;;
10452;SDS011;5274;51.992;8.518;2022-11-20T01:01:03;22.53;;;12.67;;
10452;SDS011;5274;51.992;8.518;2022-11-20T01:03:34;22.97;;;12.00;;
10452;SDS011;5274;51.992;8.518;2022-11-20T01:06:01;19.43;;;11.67;;
10452;SDS011;5274;51.992;8.518;2022-11-20T01:08:35;19.27;;;10.80;;
10452;SDS011;5274;51.992;8.518;2022-11-20T01:11:02;19.20;;;11.00;;
10452;SDS011;5274;51.992;8.518;2022-11-20T01:13:38;18.47;;;11.70;;
10452;SDS011;5274;51.992;8.518;2022-11-20T01:16:06;18.03;;;10.47;;
10452;SDS011;5274;51.992;8.518;2022-11-20T01:18:40;21.53;;;11.07;;
10452;SDS011;5274;51.992;8.518;2022-11-20T01:21:08;21.83;;;11.17;;
10452;SDS011;5274;51.992;8.518;2022-11-20T01:23:37;19.20;;;11.33;;
10452;SDS011;5274;51.992;8.518;2022-11-20T01:26:05;21.97;;;12.33;;
10452;SDS011;5274;51.992;8.518;2022-11-20T01:28:33;21.67;;;12.00;;
10452;SDS011;5274;51.992;8.518;2022-11-20T01:30:59;24.40;;;11.40;;
10452;SDS011;5274;51.992;8.518;2022-11-20T01:33:25;19.63;;;11.77;;
10452;SDS011;5274;51.992;8.518;2022-11-20T01:35:51;21.83;;;12.60;;
10452;SDS011;5274;51.992;8.518;2022-11-20T01:38:17;17.07;;;11.30;;
10452;SDS011;5274;51.992;8.518;2022-11-20T01:40:45;20.67;;;12.10;;
10452;SDS011;5274;51.992;8.518;2022-11-20T01:43:14;17.10;;;10.80;;
10452;SDS011;5274;51.992;8.518;2022-11-20T01:45:56;15.53;;;9.83;;
10452;SDS011;5274;51.992;8.518;2022-11-20T01:48:26;17.90;;;10.80;;
10452;SDS011;5274;51.992;8.518;2022-11-20T01:51:15;21.13;;;11.87;;
10452;SDS011;5274;51.992;8.518;2022-11-20T01:53:50;20.47;;;10.57;;
10452;SDS011;5274;51.992;8.518;2022-11-20T01:56:18;19.10;;;11.33;;
10452;SDS011;5274;51.992;8.518;2022-11-20T01:58:46;18.53;;;10.83;;
10452;SDS011;5274;51.992;8.518;2022-11-20T02:01:16;19.73;;;12.00;;
10452;SDS011;5274;51.992;8.518;2022-11-20T02:03:42;17.57;;;10.63;;
10452;SDS011;5274;51.992;8.518;2022-11-20T02:06:26;18.67;;;11.53;;
10452;SDS011;5274;51.992;8.518;2022-11-20T02:08:57;21.33;;;11.60;;
10452;SDS011;5274;51.992;8.518;2022-11-20T02:11:23;22.93;;;11.27;;
10452;SDS011;5274;51.992;8.518;2022-11-20T02:13:48;20.50;;;10.97;;
10452;SDS011;5274;51.992;8.518;2022-11-20T02:18:43;20.43;;;11.10;;
10452;SDS011;5274;51.992;8.518;2022-11-20T02:26:17;16.57;;;8.93;;
10452;SDS011;5274;51.992;8.518;2022-11-20T02:28:44;18.43;;;9.53;;
10452;SDS011;5274;51.992;8.518;2022-11-20T02:31:10;13.43;;;8.57;;
10452;SDS011;5274;51.992;8.518;2022-11-20T02:33:35;15.97;;;9.33;;
10452;SDS011;5274;51.992;8.518;2022-11-20T02:36:01;13.37;;;8.40;;
10452;SDS011;5274;51.992;8.518;2022-11-20T02:38:27;11.10;;;7.13;;
10452;SDS011;5274;51.992;8.518;2022-11-20T02:40:52;13.70;;;8.10;;
10452;SDS011;5274;51.992;8.518;2022-11-20T02:43:18;10.03;;;6.37;;
10452;SDS011;5274;51.992;8.518;2022-11-20T02:45:43;10.07;;;6.93;;
10452;SDS011;5274;51.992;8.518;2022-11-20T02:48:09;12.60;;;7.37;;
10452;SDS011;5274;51.992;8.518;2022-11-20T02:50:37;10.83;;;6.30;;
10452;SDS011;5274;51.992;8.518;2022-11-20T02:53:04;11.00;;;6.40;;
10452;SDS011;5274;51.992;8.518;2022-11-20T02:55:30;11.20;;;6.53;;
10452;SDS011;5274;51.992;8.518;2022-11-20T02:57:56;10.17;;;6.27;;
10452;SDS011;5274;51.992;8.518;2022-11-20T03:00:21;10.23;;;5.70;;
10452;SDS011;5274;51.992;8.518;2022-11-20T03:02:47;10.13;;;6.17;;
10452;SDS011;5274;51.992;8.518;2022-11-20T03:05:12;11.73;;;6.83;;
10452;SDS011;5274;51.992;8.518;2022-11-20T03:07:38;9.57;;;6.67;;
10452;SDS011;5274;51.992;8.518;2022-11-20T03:10:04;9.20;;;5.87;;
10452;SDS011;5274;51.992;8.518;2022-11-20T03:12:30;11.03;;;6.63;;
10452;SDS011;5274;51.992;8.518;2022-11-20T03:14:55;14.03;;;7.57;;
10452;SDS011;5274;51.992;8.518;2022-11-20T03:17:21;11.67;;;7.03;;
10452;SDS011;5274;51.992;8.518;2022-11-20T03:19:46;12.27;;;6.83;;
10452;SDS011;5274;51.992;8.518;2022-11-20T03:22:12;13.73;;;7.57;;
10452;SDS011;5274;51.992;8.518;2022-11-20T03:24:37;11.87;;;7.00;;
10452;SDS011;5274;51.992;8.518;2022-11-20T03:27:03;13.80;;;7.37;;
10452;SDS011;5274;51.992;8.518;2022-11-20T03:29:28;12.63;;;7.50;;
10452;SDS011;5274;51.992;8.518;2022-11-20T03:31:54;10.83;;;7.13;;
10452;SDS011;5274;51.992;8.518;2022-11-20T03:34:19;14.93;;;6.93;;
10452;SDS011;5274;51.992;8.518;2022-11-20T03:36:45;11.20;;;6.90;;
10452;SDS011;5274;51.992;8.518;2022-11-20T03:39:10;13.67;;;7.30;;
10452;SDS011;5274;51.992;8.518;2022-11-20T03:41:37;13.57;;;7.47;;
10452;SDS011;5274;51.992;8.518;2022-11-20T03:44:05;8.33;;;5.70;;
10452;SDS011;5274;51.992;8.518;2022-11-20T03:46:32;13.13;;;6.13;;
10452;SDS011;5274;51.992;8.518;2022-11-20T03:48:57;10.03;;;6.50;;
10452;SDS011;5274;51.992;8.518;2022-11-20T03:51:24;13.40;;;7.00;;
10452;SDS011;5274;51.992;8.518;2022-11-20T03:53:52;10.97;;;6.17;;
10452;SDS011;5274;51.992;8.518;2022-11-20T03:56:22;11.80;;;6.23;;
10452;SDS011;5274;51.992;8.518;2022-11-20T03:58:49;9.93;;;6.33;;
10452;SDS011;5274;51.992;8.518;2022-11-20T04:01:16;12.53;;;7.47;;
10452;SDS011;5274;51.992;8.518;2022-11-20T04:03:43;13.33;;;7.00;;
10452;SDS011;5274;51.992;8.518;2022-11-20T04:06:11;10.63;;;7.00;;
10452;SDS011;5274;51.992;8.518;2022-11-20T04:08:44;13.17;;;6.93;;
10452;SDS011;5274;51.992;8.518;2022-11-20T04:11:42;12.27;;;7.27;;
10452;SDS011;5274;51.992;8.518;2022-11-20T04:14:04;10.43;;;6.60;;
10452;SDS011;5274;51.992;8.518;2022-11-20T04:16:32;15.43;;;7.50;;
10452;SDS011;5274;51.992;8.518;2022-11-20T04:19:01;10.60;;;6.57;;
10452;SDS011;5274;51.992;8.518;2022-11-20T04:21:29;11.03;;;6.77;;
10452;SDS011;5274;51.992;8.518;2022-11-20T04:23:55;11.40;;;6.90;;
10452;SDS011;5274;51.992;8.518;2022-11-20T04:26:22;11.50;;;6.83;;
10452;SDS011;5274;51.992;8.518;2022-11-20T04:28:48;11.23;;;6.50;;
10452;SDS011;5274;51.992;8.518;2022-11-20T04:31:15;9.97;;;6.50;;
10452;SDS011;5274;51.992;8.518;2022-11-20T04:33:49;9.20;;;6.07;;
10452;SDS011;5274;51.992;8.518;2022-11-20T04:36:15;11.70;;;5.83;;
10452;SDS011;5274;51.992;8.518;2022-11-20T04:38:50;11.83;;;6.10;;
10452;SDS011;5274;51.992;8.518;2022-11-20T04:41:21;10.17;;;6.17;;
10452;SDS011;5274;51.992;8.518;2022-11-20T04:43:51;12.40;;;6.10;;
10452;SDS011;5274;51.992;8.518;2022-11-20T04:46:24;10.60;;;5.60;;
10452;SDS011;5274;51.992;8.518;2022-11-20T04:48:50;11.10;;;6.10;;
10452;SDS011;5274;51.992;8.518;2022-11-20T04:51:16;12.73;;;5.90;;
10452;SDS011;5274;51.992;8.518;2022-11-20T04:53:41;11.70;;;7.23;;
10452;SDS011;5274;51.992;8.518;2022-11-20T04:56:08;14.93;;;6.20;;
10452;SDS011;5274;51.992;8.518;2022-11-20T04:58:35;9.40;;;5.93;;
10452;SDS011;5274;51.992;8.518;2022-11-20T05:01:02;13.43;;;6.93;;
10452;SDS011;5274;51.992;8.518;2022-11-20T05:03:32;12.37;;;7.07;;
10452;SDS011;5274;51.992;8.518;2022-11-20T05:06:02;11.53;;;6.17;;
10452;SDS011;5274;51.992;8.518;2022-11-20T05:08:29;8.27;;;5.70;;
10452;SDS011;5274;51.992;8.518;2022-11-20T05:13:41;11.20;;;6.53;;
10452;SDS011;5274;51.992;8.518;2022-11-20T05:16:08;9.60;;;5.97;;
10452;SDS011;5274;51.992;8.518;2022-11-20T05:18:35;12.87;;;6.00;;
10452;SDS011;5274;51.992;8.518;2022-11-20T05:21:02;10.40;;;6.83;;
10452;SDS011;5274;51.992;8.518;2022-11-20T05:23:29;14.10;;;7.20;;
10452;SDS011;5274;51.992;8.518;2022-11-20T05:25:56;12.03;;;7.03;;
10452;SDS011;5274;51.992;8.518;2022-11-20T05:28:22;9.77;;;6.87;;
10452;SDS011;5274;51.992;8.518;2022-11-20T05:30:48;9.63;;;6.37;;
10452;SDS011;5274;51.992;8.518;2022-11-20T05:33:14;11.70;;;7.23;;
10452;SDS011;5274;51.992;8.518;2022-11-20T05:35:40;12.27;;;6.90;;
10452;SDS011;5274;51.992;8.518;2022-11-20T05:38:05;12.53;;;7.43;;
10452;SDS011;5274;51.992;8.518;2022-11-20T05:40:31;9.43;;;6.37;;
10452;SDS011;5274;51.992;8.518;2022-11-20T05:42:56;11.57;;;7.17;;
10452;SDS011;5274;51.992;8.518;2022-11-20T05:45:22;12.57;;;7.70;;
10452;SDS011;5274;51.992;8.518;2022-11-20T05:47:48;13.67;;;7.17;;
10452;SDS011;5274;51.992;8.518;2022-11-20T05:50:13;14.23;;;7.00;;
10452;SDS011;5274;51.992;8.518;2022-11-20T05:52:39;11.23;;;6.57;;
10452;SDS011;5274;51.992;8.518;2022-11-20T05:55:05;10.70;;;6.53;;
10452;SDS011;5274;51.992;8.518;2022-11-20T05:57:31;12.43;;;6.53;;
10452;SDS011;5274;51.992;8.518;2022-11-20T05:59:57;10.43;;;6.17;;
10452;SDS011;5274;51.992;8.518;2022-11-20T06:02:22;11.13;;;6.10;;
10452;SDS011;5274;51.992;8.518;2022-11-20T06:04:48;10.13;;;6.10;;
10452;SDS011;5274;51.992;8.518;2022-11-20T06:07:13;10.77;;;6.30;;
10452;SDS011;5274;51.992;8.518;2022-11-20T06:09:39;13.93;;;7.97;;
10452;SDS011;5274;51.992;8.518;2022-11-20T06:12:05;13.27;;;7.30;;
10452;SDS011;5274;51.992;8.518;2022-11-20T06:14:30;15.30;;;7.13;;
10452;SDS011;5274;51.992;8.518;2022-11-20T06:16:56;12.10;;;6.80;;
10452;SDS011;5274;51.992;8.518;2022-11-20T06:19:22;11.90;;;7.07;;
10452;SDS011;5274;51.992;8.518;2022-11-20T06:21:48;13.90;;;6.80;;
10452;SDS011;5274;51.992;8.518;2022-11-20T06:24:17;13.07;;;7.60;;
10452;SDS011;5274;51.992;8.518;2022-11-20T06:26:43;14.33;;;7.87;;
10452;SDS011;5274;51.992;8.518;2022-11-20T06:29:09;14.50;;;7.77;;
10452;SDS011;5274;51.992;8.518;2022-11-20T06:31:35;15.30;;;8.17;;
10452;SDS011;5274;51.992;8.518;2022-11-20T06:34:03;12.77;;;7.37;;
10452;SDS011;5274;51.992;8.518;2022-11-20T06:36:29;13.40;;;8.00;;
10452;SDS011;5274;51.992;8.518;2022-11-20T06:38:55;11.77;;;6.97;;
10452;SDS011;5274;51.992;8.518;2022-11-20T06:41:21;13.07;;;7.23;;
10452;SDS011;5274;51.992;8.518;2022-11-20T06:43:47;12.43;;;7.13;;
10452;SDS011;5274;51.992;8.518;2022-11-20T06:46:13;15.37;;;8.23;;
10452;SDS011;5274;51.992;8.518;2022-11-20T06:48:42;12.40;;;7.10;;
10452;SDS011;5274;51.992;8.518;2022-11-20T06:51:08;15.57;;;8.47;;
10452;SDS011;5274;51.992;8.518;2022-11-20T06:53:34;12.53;;;7.77;;
10452;SDS011;5274;51.992;8.518;2022-11-20T06:56:00;15.70;;;8.43;;
10452;SDS011;5274;51.992;8.518;2022-11-20T06:58:26;15.67;;;8.30;;
10452;SDS011;5274;51.992;8.518;2022-11-20T07:00:53;15.20;;;9.10;;
10452;SDS011;5274;51.992;8.518;2022-11-20T07:03:22;15.30;;;9.33;;
10452;SDS011;5274;51.992;8.518;2022-11-20T07:05:47;16.83;;;9.13;;
10452;SDS011;5274;51.992;8.518;2022-11-20T07:08:13;16.13;;;9.50;;
10452;SDS011;5274;51.992;8.518;2022-11-20T07:10:38;17.67;;;10.07;;
10452;SDS011;5274;51.992;8.518;2022-11-20T07:13:04;20.10;;;11.43;;
10452;SDS011;5274;51.992;8.518;2022-11-20T07:15:30;18.87;;;10.20;;
10452;SDS011;5274;51.992;8.518;2022-11-20T07:17:58;19.13;;;10.30;;
10452;SDS011;5274;51.992;8.518;2022-11-20T07:20:24;22.27;;;12.23;;
10452;SDS011;5274;51.992;8.518;2022-11-20T07:22:53;20.87;;;10.87;;
10452;SDS011;5274;51.992;8.518;2022-11-20T07:25:20;18.67;;;10.67;;
10452;SDS011;5274;51.992;8.518;2022-11-20T07:27:45;25.77;;;12.57;;
10452;SDS011;5274;51.992;8.518;2022-11-20T07:30:11;24.93;;;10.83;;
10452;SDS011;5274;51.992;8.518;2022-11-20T07:32:37;23.13;;;11.80;;
10452;SDS011;5274;51.992;8.518;2022-11-20T07:35:03;31.17;;;11.57;;
10452;SDS011;5274;51.992;8.518;2022-11-20T07:37:28;26.97;;;13.23;;
10452;SDS011;5274;51.992;8.518;2022-11-20T07:39:54;34.87;;;14.17;;
10452;SDS011;5274;51.992;8.518;2022-11-20T07:42:19;31.27;;;13.93;;
10452;SDS011;5274;51.992;8.518;2022-11-20T07:44:45;28.03;;;14.30;;
10452;SDS011;5274;51.992;8.518;2022-11-20T07:47:11;34.47;;;14.63;;
10452;SDS011;5274;51.992;8.518;2022-11-20T07:49:36;38.23;;;15.87;;
10452;SDS011;5274;51.992;8.518;2022-11-20T07:52:02;31.80;;;14.37;;
10452;SDS011;5274;51.992;8.518;2022-11-20T07:54:27;32.27;;;13.67;;
10452;SDS011;5274;51.992;8.518;2022-11-20T07:56:53;31.00;;;14.57;;
10452;SDS011;5274;51.992;8.518;2022-11-20T07:59:19;30.07;;;13.37;;
10452;SDS011;5274;51.992;8.518;2022-11-20T08:01:44;28.23;;;13.03;;
10452;SDS011;5274;51.992;8.518;2022-11-20T08:04:10;29.07;;;13.63;;
10452;SDS011;5274;51.992;8.518;2022-11-20T08:06:36;26.67;;;12.93;;
10452;SDS011;5274;51.992;8.518;2022-11-20T08:09:02;27.37;;;12.57;;
10452;SDS011;5274;51.992;8.518;2022-11-20T08:11:28;23.60;;;13.10;;
10452;SDS011;5274;51.992;8.518;2022-11-20T08:14:12;23.23;;;12.47;;
10452;SDS011;5274;51.992;8.518;2022-11-20T08:16:38;19.80;;;10.80;;
10452;SDS011;5274;51.992;8.518;2022-11-20T08:19:12;21.47;;;11.90;;
10452;SDS011;5274;51.992;8.518;2022-11-20T08:21:38;20.10;;;11.57;;
10452;SDS011;5274;51.992;8.518;2022-11-20T08:24:05;17.93;;;11.00;;
10452;SDS011;5274;51.992;8.518;2022-11-20T08:26:31;20.80;;;11.87;;
10452;SDS011;5274;51.992;8.518;2022-11-20T08:28:56;18.60;;;11.30;;
10452;SDS011;5274;51.992;8.518;2022-11-20T08:31:23;19.90;;;11.27;;
10452;SDS011;5274;51.992;8.518;2022-11-20T08:33:50;20.70;;;11.23;;
10452;SDS011;5274;51.992;8.518;2022-11-20T08:36:15;24.03;;;12.23;;
10452;SDS011;5274;51.992;8.518;2022-11-20T08:38:41;19.67;;;11.47;;
10452;SDS011;5274;51.992;8.518;2022-11-20T08:41:07;22.47;;;11.77;;
10452;SDS011;5274;51.992;8.518;2022-11-20T08:43:48;21.23;;;12.07;;
10452;SDS011;5274;51.992;8.518;2022-11-20T08:46:43;18.73;;;10.70;;
10452;SDS011;5274;51.992;8.518;2022-11-20T08:49:11;18.77;;;10.47;;
10452;SDS011;5274;51.992;8.518;2022-11-20T08:51:38;16.90;;;9.63;;
10452;SDS011;5274;51.992;8.518;2022-11-20T08:54:04;14.50;;;9.07;;
10452;SDS011;5274;51.992;8.518;2022-11-20T08:56:31;15.60;;;9.73;;
10452;SDS011;5274;51.992;8.518;2022-11-20T08:58:57;15.10;;;9.87;;
10452;SDS011;5274;51.992;8.518;2022-11-20T09:01:24;16.13;;;9.60;;
10452;SDS011;5274;51.992;8.518;2022-11-20T09:03:50;16.73;;;9.57;;
10452;SDS011;5274;51.992;8.518;2022-11-20T09:06:15;15.57;;;9.13;;
10452;SDS011;5274;51.992;8.518;2022-11-20T09:08:41;15.90;;;9.50;;
10452;SDS011;5274;51.992;8.518;2022-11-20T09:11:07;15.07;;;9.50;;
10452;SDS011;5274;51.992;8.518;2022-11-20T09:13:33;14.60;;;9.10;;
10452;SDS011;5274;51.992;8.518;2022-11-20T09:16:01;14.73;;;9.10;;
10452;SDS011;5274;51.992;8.518;2022-11-20T09:18:31;14.20;;;8.70;;
10452;SDS011;5274;51.992;8.518;2022-11-20T09:21:01;13.20;;;8.83;;
10452;SDS011;5274;51.992;8.518;2022-11-20T09:23:30;13.67;;;7.43;;
10452;SDS011;5274;51.992;8.518;2022-11-20T09:25:58;14.80;;;8.17;;
10452;SDS011;5274;51.992;8.518;2022-11-20T09:28:27;13.93;;;8.90;;
10452;SDS011;5274;51.992;8.518;2022-11-20T09:30:52;11.57;;;7.97;;
10452;SDS011;5274;51.992;8.518;2022-11-20T09:33:18;13.00;;;7.60;;
10452;SDS011;5274;51.992;8.518;2022-11-20T09:35:44;13.17;;;8.53;;
10452;SDS011;5274;51.992;8.518;2022-11-20T09:38:09;14.80;;;8.63;;
10452;SDS011;5274;51.992;8.518;2022-11-20T09:40:37;12.90;;;8.30;;
10452;SDS011;5274;51.992;8.518;2022-11-20T09:45:50;11.17;;;8.20;;
10452;SDS011;5274;51.992;8.518;2022-11-20T09:50:58;13.23;;;8.63;;
10452;SDS011;5274;51.992;8.518;2022-11-20T09:53:41;11.30;;;7.90;;
10452;SDS011;5274;51.992;8.518;2022-11-20T09:56:20;12.43;;;8.13;;
10452;SDS011;5274;51.992;8.518;2022-11-20T09:58:50;12.10;;;7.23;;
10452;SDS011;5274;51.992;8.518;2022-11-20T10:01:21;12.50;;;7.67;;
10452;SDS011;5274;51.992;8.518;2022-11-20T10:03:55;10.43;;;7.37;;
10452;SDS011;5274;51.992;8.518;2022-11-20T10:06:37;13.47;;;7.50;;
10452;SDS011;5274;51.992;8.518;2022-11-20T10:11:46;14.73;;;8.93;;
10452;SDS011;5274;51.992;8.518;2022-11-20T10:30:40;14.33;;;8.20;;
10452;SDS011;5274;51.992;8.518;2022-11-20T10:33:17;11.83;;;8.17;;
10452;SDS011;5274;51.992;8.518;2022-11-20T10:35:55;11.60;;;8.37;;
10452;SDS011;5274;51.992;8.518;2022-11-20T10:38:42;11.67;;;7.97;;
10452;SDS011;5274;51.992;8.518;2022-11-20T10:41:20;14.10;;;8.53;;
10452;SDS011;5274;51.992;8.518;2022-11-20T10:44:05;11.60;;;7.47;;
10452;SDS011;5274;51.992;8.518;2022-11-20T10:46:44;12.03;;;7.90;;
10452;SDS011;5274;51.992;8.518;2022-11-20T10:49:11;10.30;;;7.80;;
10452;SDS011;5274;51.992;8.518;2022-11-20T10:56:50;12.63;;;8.77;;
10452;SDS011;5274;51.992;8.518;2022-11-20T11:02:21;12.47;;;8.57;;
10452;SDS011;5274;51.992;8.518;2022-11-20T11:04:52;11.50;;;7.77;;
10452;SDS011;5274;51.992;8.518;2022-11-20T11:07:23;11.33;;;8.07;;
10452;SDS011;5274;51.992;8.518;2022-11-20T11:09:55;12.40;;;8.97;;
10452;SDS011;5274;51.992;8.518;2022-11-20T11:12:24;12.40;;;8.13;;
10452;SDS011;5274;51.992;8.518;2022-11-20T11:14:52;14.33;;;8.67;;
10452;SDS011;5274;51.992;8.518;2022-11-20T11:17:23;12.10;;;8.00;;
10452;SDS011;5274;51.992;8.518;2022-11-20T11:20:01;11.73;;;8.00;;
10452;SDS011;5274;51.992;8.518;2022-11-20T11:22:27;12.07;;;7.90;;
10452;SDS011;5274;51.992;8.518;2022-11-20T11:24:55;9.10;;;6.63;;
10452;SDS011;5274;51.992;8.518;2022-11-20T11:27:20;10.80;;;7.40;;
10452;SDS011;5274;51.992;8.518;2022-11-20T11:29:46;9.80;;;6.90;;
10452;SDS011;5274;51.992;8.518;2022-11-20T11:32:17;11.50;;;6.53;;
10452;SDS011;5274;51.992;8.518;2022-11-20T11:34:57;9.20;;;6.60;;
10452;SDS011;5274;51.992;8.518;2022-11-20T11:37:28;8.02;;;6.18;;
10452;SDS011;5274;51.992;8.518;2022-11-20T11:39:59;7.20;;;6.22;;
10452;SDS011;5274;51.992;8.518;2022-11-20T11:42:25;8.48;;;6.45;;
10452;SDS011;5274;51.992;8.518;2022-11-20T11:44:52;8.43;;;5.85;;
10452;SDS011;5274;51.992;8.518;2022-11-20T11:47:31;10.48;;;6.95;;
10452;SDS011;5274;51.992;8.518;2022-11-20T11:50:19;7.68;;;6.20;;
10452;SDS011;5274;51.992;8.518;2022-11-20T11:52:58;9.18;;;6.40;;
10452;SDS011;5274;51.992;8.518;2022-11-20T11:55:56;7.78;;;6.03;;
10452;SDS011;5274;51.992;8.518;2022-11-20T12:01:19;7.07;;;5.82;;
10452;SDS011;5274;51.992;8.518;2022-11-20T12:06:34;7.70;;;6.53;;
10452;SDS011;5274;51.992;8.518;2022-11-20T12:09:04;7.90;;;6.05;;
10452;SDS011;5274;51.992;8.518;2022-11-20T12:14:19;9.73;;;6.70;;
10452;SDS011;5274;51.992;8.518;2022-11-20T12:17:00;9.05;;;6.38;;
10452;SDS011;5274;51.992;8.518;2022-11-20T12:19:26;12.48;;;7.95;;
10452;SDS011;5274;51.992;8.518;2022-11-20T12:22:02;11.45;;;7.82;;
10452;SDS011;5274;51.992;8.518;2022-11-20T12:30:17;11.07;;;7.72;;
10452;SDS011;5274;51.992;8.518;2022-11-20T12:41:11;13.02;;;8.23;;
10452;SDS011;5274;51.992;8.518;2022-11-20T12:47:16;12.03;;;8.13;;
10452;SDS011;5274;51.992;8.518;2022-11-20T12:50:02;11.97;;;7.77;;
10452;SDS011;5274;51.992;8.518;2022-11-20T12:52:42;13.37;;;8.43;;
10452;SDS011;5274;51.992;8.518;2022-11-20T12:55:36;13.57;;;8.70;;
10452;SDS011;5274;51.992;8.518;2022-11-20T13:01:02;12.30;;;8.10;;
10452;SDS011;5274;51.992;8.518;2022-11-20T13:04:07;9.13;;;6.80;;
10452;SDS011;5274;51.992;8.518;2022-11-20T13:06:34;10.88;;;6.53;;
10452;SDS011;5274;51.992;8.518;2022-11-20T13:09:00;12.95;;;6.70;;
10452;SDS011;5274;51.992;8.518;2022-11-20T13:11:32;9.95;;;6.97;;
10452;SDS011;5274;51.992;8.518;2022-11-20T13:17:05;12.27;;;7.00;;
10452;SDS011;5274;51.992;8.518;2022-11-20T13:19:57;12.05;;;7.93;;
10452;SDS011;5274;51.992;8.518;2022-11-20T13:22:41;11.68;;;7.72;;
10452;SDS011;5274;51.992;8.518;2022-11-20T13:27:57;11.03;;;7.77;;
10452;SDS011;5274;51.992;8.518;2022-11-20T13:30:25;10.93;;;7.60;;
10452;SDS011;5274;51.992;8.518;2022-11-20T13:35:29;14.33;;;8.30;;
10452;SDS011;5274;51.992;8.518;2022-11-20T13:40:50;12.20;;;7.87;;
10452;SDS011;5274;51.992;8.518;2022-11-20T13:43:28;12.47;;;8.40;;
10452;SDS011;5274;51.992;8.518;2022-11-20T13:46:01;14.03;;;9.07;;
10452;SDS011;5274;51.992;8.518;2022-11-20T13:48:33;13.60;;;8.13;;
10452;SDS011;5274;51.992;8.518;2022-11-20T14:02:01;16.83;;;9.93;;
10452;SDS011;5274;51.992;8.518;2022-11-20T14:04:33;15.63;;;8.90;;
10452;SDS011;5274;51.992;8.518;2022-11-20T14:07:05;16.37;;;9.97;;
10452;SDS011;5274;51.992;8.518;2022-11-20T14:09:32;18.37;;;10.53;;
10452;SDS011;5274;51.992;8.518;2022-11-20T14:11:59;18.00;;;11.17;;
10452;SDS011;5274;51.992;8.518;2022-11-20T14:14:25;17.00;;;10.00;;
10452;SDS011;5274;51.992;8.518;2022-11-20T14:16:53;15.27;;;8.83;;
10452;SDS011;5274;51.992;8.518;2022-11-20T14:19:32;14.23;;;9.80;;
10452;SDS011;5274;51.992;8.518;2022-11-20T14:22:18;15.60;;;9.63;;
10452;SDS011;5274;51.992;8.518;2022-11-20T14:25:00;17.00;;;9.53;;
10452;SDS011;5274;51.992;8.518;2022-11-20T14:27:32;17.07;;;10.40;;
10452;SDS011;5274;51.992;8.518;2022-11-20T14:30:00;18.20;;;10.53;;
10452;SDS011;5274;51.992;8.518;2022-11-20T14:32:28;19.80;;;10.93;;
10452;SDS011;5274;51.992;8.518;2022-11-20T14:34:55;16.77;;;10.07;;
10452;SDS011;5274;51.992;8.518;2022-11-20T14:37:33;17.27;;;10.90;;
10452;SDS011;5274;51.992;8.518;2022-11-20T14:40:02;25.07;;;12.03;;
10452;SDS011;5274;51.992;8.518;2022-11-20T14:42:30;19.60;;;12.10;;
10452;SDS011;5274;51.992;8.518;2022-11-20T14:44:56;22.27;;;11.50;;
10452;SDS011;5274;51.992;8.518;2022-11-20T14:47:24;20.23;;;11.93;;
10452;SDS011;5274;51.992;8.518;2022-11-20T14:49:51;19.07;;;12.00;;
10452;SDS011;5274;51.992;8.518;2022-11-20T14:52:19;18.90;;;12.27;;
10452;SDS011;5274;51.992;8.518;2022-11-20T14:54:50;24.27;;;12.87;;
10452;SDS011;5274;51.992;8.518;2022-11-20T15:00:03;19.40;;;12.37;;
10452;SDS011;5274;51.992;8.518;2022-11-20T15:02:29;24.87;;;13.30;;
10452;SDS011;5274;51.992;8.518;2022-11-20T15:04:58;21.80;;;13.73;;
10452;SDS011;5274;51.992;8.518;2022-11-20T15:07:32;21.70;;;13.90;;
10452;SDS011;5274;51.992;8.518;2022-11-20T15:10:09;22.80;;;13.37;;
10452;SDS011;5274;51.992;8.518;2022-11-20T15:12:37;24.67;;;14.20;;
10452;SDS011;5274;51.992;8.518;2022-11-20T15:15:06;23.13;;;13.47;;
10452;SDS011;5274;51.992;8.518;2022-11-20T15:17:35;22.80;;;14.00;;
10452;SDS011;5274;51.992;8.518;2022-11-20T15:20:05;22.33;;;13.67;;
10452;SDS011;5274;51.992;8.518;2022-11-20T15:22:41;26.90;;;14.50;;
10452;SDS011;5274;51.992;8.518;2022-11-20T15:25:14;23.70;;;13.37;;
10452;SDS011;5274;51.992;8.518;2022-11-20T15:27:41;23.07;;;13.37;;
10452;SDS011;5274;51.992;8.518;2022-11-20T15:30:14;23.43;;;13.90;;
10452;SDS011;5274;51.992;8.518;2022-11-20T15:32:42;24.30;;;13.27;;
10452;SDS011;5274;51.992;8.518;2022-11-20T15:35:08;29.83;;;15.77;;
10452;SDS011;5274;51.992;8.518;2022-11-20T15:37:35;21.13;;;13.13;;
10452;SDS011;5274;51.992;8.518;2022-11-20T15:40:01;24.03;;;14.83;;
10452;SDS011;5274;51.992;8.518;2022-11-20T15:42:26;21.87;;;13.80;;
10452;SDS011;5274;51.992;8.518;2022-11-20T15:44:52;29.50;;;17.37;;
10452;SDS011;5274;51.992;8.518;2022-11-20T15:47:24;22.53;;;14.47;;
10452;SDS011;5274;51.992;8.518;2022-11-20T15:49:55;20.00;;;13.00;;
10452;SDS011;5274;51.992;8.518;2022-11-20T15:52:21;25.83;;;14.57;;
10452;SDS011;5274;51.992;8.518;2022-11-20T15:54:47;17.67;;;11.43;;
10452;SDS011;5274;51.992;8.518;2022-11-20T15:57:12;19.83;;;11.40;;
10452;SDS011;5274;51.992;8.518;2022-11-20T15:59:38;19.40;;;12.13;;
10452;SDS011;5274;51.992;8.518;2022-11-20T16:02:12;22.83;;;11.83;;
10452;SDS011;5274;51.992;8.518;2022-11-20T16:04:40;16.50;;;10.80;;
10452;SDS011;5274;51.992;8.518;2022-11-20T16:07:07;15.83;;;9.80;;
10452;SDS011;5274;51.992;8.518;2022-11-20T16:09:32;20.97;;;11.03;;
10452;SDS011;5274;51.992;8.518;2022-11-20T16:11:58;16.27;;;10.13;;
10452;SDS011;5274;51.992;8.518;2022-11-20T16:14:25;16.27;;;9.60;;
10452;SDS011;5274;51.992;8.518;2022-11-20T16:17:10;17.90;;;10.57;;
10452;SDS011;5274;51.992;8.518;2022-11-20T16:19:36;14.50;;;9.17;;
10452;SDS011;5274;51.992;8.518;2022-11-20T16:22:01;14.17;;;9.73;;
10452;SDS011;5274;51.992;8.518;2022-11-20T16:24:27;14.30;;;9.13;;
10452;SDS011;5274;51.992;8.518;2022-11-20T16:26:53;14.57;;;8.97;;
10452;SDS011;5274;51.992;8.518;2022-11-20T16:29:19;16.10;;;8.00;;
10452;SDS011;5274;51.992;8.518;2022-11-20T16:31:45;14.70;;;8.43;;